createdAt,value
2023-03-19T00:00:40.949Z,14.85
2023-03-19T00:03:08.676Z,9.57
2023-03-19T00:05:36.057Z,10.10
2023-03-19T00:08:03.414Z,8.73
2023-03-19T00:10:30.651Z,9.18
2023-03-19T00:12:57.864Z,9.95
2023-03-19T00:15:25.136Z,10.13
2023-03-19T00:17:52.568Z,9.10
2023-03-19T00:20:20.619Z,10.13
2023-03-19T00:22:47.817Z,9.13
2023-03-19T00:25:15.115Z,9.98
2023-03-19T00:27:42.871Z,9.77
2023-03-19T00:30:11.389Z,9.30
2023-03-19T00:32:39.540Z,10.00
2023-03-19T00:35:07.193Z,10.85
2023-03-19T00:37:34.844Z,6.53
2023-03-19T00:40:02.377Z,9.43
2023-03-19T00:42:29.585Z,9.50
2023-03-19T00:44:56.928Z,10.95
2023-03-19T00:47:24.493Z,10.07
2023-03-19T00:49:51.986Z,11.25
2023-03-19T00:52:19.225Z,11.00
2023-03-19T00:54:46.684Z,10.18
2023-03-19T00:57:14.251Z,11.57
2023-03-19T00:59:41.618Z,12.27
2023-03-19T01:02:08.871Z,10.93
2023-03-19T01:04:36.354Z,11.63
2023-03-19T01:07:03.687Z,11.35
2023-03-19T01:09:31.197Z,9.93
2023-03-19T01:11:58.908Z,10.90
2023-03-19T01:14:26.213Z,11.45
2023-03-19T01:16:53.777Z,11.35
2023-03-19T01:19:21.264Z,10.90
2023-03-19T01:21:49.639Z,12.60
2023-03-19T01:24:17.327Z,10.93
2023-03-19T01:26:44.671Z,11.85
2023-03-19T01:29:11.902Z,10.80
2023-03-19T01:31:39.220Z,10.88
2023-03-19T01:34:06.631Z,12.45
2023-03-19T01:36:34.124Z,12.82
2023-03-19T01:39:01.717Z,12.30
2023-03-19T01:41:28.929Z,11.73
2023-03-19T01:43:56.137Z,11.88
2023-03-19T01:46:27.894Z,11.80
2023-03-19T01:48:59.874Z,11.93
2023-03-19T01:51:28.825Z,12.30
2023-03-19T01:54:04.967Z,10.45
2023-03-19T01:56:37.238Z,12.52
2023-03-19T01:59:09.775Z,12.10
2023-03-19T02:01:41.332Z,12.15
2023-03-19T02:04:08.660Z,11.35
2023-03-19T02:06:37.793Z,13.05
2023-03-19T02:09:05.090Z,11.10
2023-03-19T02:11:32.557Z,11.30
2023-03-19T02:13:59.776Z,11.85
2023-03-19T02:16:27.437Z,11.85
2023-03-19T02:18:54.678Z,12.50
2023-03-19T02:21:22.176Z,11.88
2023-03-19T02:23:58.421Z,11.77
2023-03-19T02:29:02.194Z,12.30
2023-03-19T02:31:29.469Z,12.10
2023-03-19T02:34:27.548Z,11.00
2023-03-19T02:37:16.058Z,11.82
2023-03-19T02:40:05.585Z,12.00
2023-03-19T02:42:32.831Z,11.50
2023-03-19T02:45:00.067Z,12.15
2023-03-19T02:47:27.815Z,12.20
2023-03-19T02:49:55.633Z,11.25
2023-03-19T02:52:22.855Z,11.50
2023-03-19T02:54:50.214Z,11.63
2023-03-19T02:57:17.478Z,12.07
2023-03-19T02:59:44.692Z,12.40
2023-03-19T03:02:12.227Z,11.55
2023-03-19T03:04:39.516Z,11.73
2023-03-19T03:07:07.506Z,10.88
2023-03-19T03:09:35.004Z,12.27
2023-03-19T03:12:02.239Z,12.23
2023-03-19T03:14:29.796Z,11.50
2023-03-19T03:16:57.489Z,12.38
2023-03-19T03:19:24.834Z,12.63
2023-03-19T03:21:52.116Z,13.05
2023-03-19T03:24:19.462Z,12.02
2023-03-19T03:26:46.741Z,13.70
2023-03-19T03:29:14.000Z,13.32
2023-03-19T03:31:41.526Z,12.05
2023-03-19T03:34:08.890Z,14.48
2023-03-19T03:36:36.934Z,13.27
2023-03-19T03:39:04.741Z,12.95
2023-03-19T03:41:31.957Z,13.32
2023-03-19T03:43:58.787Z,12.80
2023-03-19T03:46:26.029Z,13.43
2023-03-19T03:48:53.292Z,13.23
2023-03-19T03:51:20.632Z,12.52
2023-03-19T03:53:47.890Z,14.48
2023-03-19T03:56:15.175Z,13.30
2023-03-19T03:58:42.443Z,13.10
2023-03-19T04:01:14.830Z,13.20
2023-03-19T04:03:42.033Z,13.27
2023-03-19T04:06:14.650Z,13.02
2023-03-19T04:08:41.506Z,13.70
2023-03-19T04:11:09.109Z,12.82
2023-03-19T04:13:37.181Z,12.95
2023-03-19T04:16:08.913Z,12.27
2023-03-19T04:18:36.830Z,11.65
2023-03-19T04:21:04.850Z,11.18
2023-03-19T04:23:31.715Z,11.38
2023-03-19T04:26:03.325Z,11.20
2023-03-19T04:28:31.310Z,11.02
2023-03-19T04:31:05.856Z,11.73
2023-03-19T04:33:33.404Z,11.52
2023-03-19T04:36:00.713Z,12.10
2023-03-19T04:38:28.001Z,10.30
2023-03-19T04:40:56.229Z,11.43
2023-03-19T04:43:24.223Z,11.05
2023-03-19T04:45:51.966Z,10.57
2023-03-19T04:48:19.493Z,10.43
2023-03-19T04:50:47.303Z,11.32
2023-03-19T04:53:15.517Z,10.68
2023-03-19T04:55:42.749Z,10.80
2023-03-19T04:58:10.013Z,10.00
2023-03-19T05:00:37.328Z,9.60
2023-03-19T05:03:04.771Z,10.48
2023-03-19T05:05:32.058Z,9.95
2023-03-19T05:07:59.504Z,10.23
2023-03-19T05:10:26.775Z,10.73
2023-03-19T05:12:53.970Z,9.48
2023-03-19T05:15:21.220Z,9.77
2023-03-19T05:17:48.828Z,8.60
2023-03-19T05:20:16.155Z,9.50
2023-03-19T05:22:43.456Z,10.80
2023-03-19T05:25:10.668Z,9.35
2023-03-19T05:27:37.892Z,9.70
2023-03-19T05:30:06.138Z,9.15
2023-03-19T05:32:34.077Z,6.93
2023-03-19T05:35:01.350Z,6.03
2023-03-19T05:37:28.608Z,4.90
2023-03-19T05:39:56.044Z,6.50
2023-03-19T05:42:23.265Z,9.30
2023-03-19T05:44:50.547Z,8.98
2023-03-19T05:47:18.072Z,9.27
2023-03-19T05:49:45.311Z,10.32
2023-03-19T05:52:12.625Z,10.73
2023-03-19T05:54:40.106Z,10.02
2023-03-19T05:57:07.727Z,9.70
2023-03-19T05:59:34.910Z,7.78
2023-03-19T06:02:02.141Z,8.80
2023-03-19T06:04:29.400Z,10.23
2023-03-19T06:06:57.257Z,9.25
2023-03-19T06:09:24.475Z,8.25
2023-03-19T06:11:51.746Z,9.27
2023-03-19T06:14:19.257Z,9.52
2023-03-19T06:16:46.658Z,9.20
2023-03-19T06:19:14.062Z,8.68
2023-03-19T06:21:41.614Z,8.90
2023-03-19T06:24:08.939Z,9.70
2023-03-19T06:26:37.379Z,8.20
2023-03-19T06:29:05.001Z,8.05
2023-03-19T06:31:32.398Z,8.43
2023-03-19T06:33:59.644Z,8.48
2023-03-19T06:36:27.141Z,8.57
2023-03-19T06:38:54.393Z,8.52
2023-03-19T06:41:21.967Z,9.23
2023-03-19T06:43:49.473Z,8.55
2023-03-19T06:46:16.797Z,6.95
2023-03-19T06:48:44.063Z,8.10
2023-03-19T06:51:11.350Z,8.25
2023-03-19T06:53:38.760Z,8.68
2023-03-19T06:56:06.160Z,8.55
2023-03-19T06:58:33.438Z,8.30
2023-03-19T07:01:00.743Z,7.60
2023-03-19T07:03:27.996Z,7.63
2023-03-19T07:05:55.476Z,7.55
2023-03-19T07:08:22.442Z,7.90
2023-03-19T07:10:49.232Z,8.20
2023-03-19T07:13:16.273Z,8.15
2023-03-19T07:15:43.064Z,7.88
2023-03-19T07:18:10.052Z,8.57
2023-03-19T07:20:37.389Z,8.45
2023-03-19T07:23:04.259Z,8.32
2023-03-19T07:25:31.307Z,8.65
2023-03-19T07:27:58.179Z,9.07
2023-03-19T07:30:25.558Z,8.18
2023-03-19T07:32:52.385Z,9.35
2023-03-19T07:35:19.717Z,8.45
2023-03-19T07:37:46.853Z,9.20
2023-03-19T07:40:14.152Z,8.45
2023-03-19T07:42:42.333Z,8.70
2023-03-19T07:45:11.736Z,8.40
2023-03-19T07:47:40.080Z,7.97
2023-03-19T07:50:07.758Z,8.85
2023-03-19T07:52:34.960Z,7.93
2023-03-19T07:55:01.792Z,8.13
2023-03-19T07:57:29.070Z,8.27
2023-03-19T07:59:56.355Z,7.82
2023-03-19T08:02:23.854Z,8.77
2023-03-19T08:04:51.675Z,8.40
2023-03-19T08:07:18.545Z,10.05
2023-03-19T08:09:45.343Z,8.82
2023-03-19T08:12:12.591Z,8.60
2023-03-19T08:14:39.905Z,8.57
2023-03-19T08:17:08.297Z,8.40
2023-03-19T08:19:35.612Z,8.35
2023-03-19T08:22:02.500Z,7.93
2023-03-19T08:24:29.732Z,8.13
2023-03-19T08:26:57.026Z,8.13
2023-03-19T08:29:26.425Z,7.82
2023-03-19T08:31:54.688Z,8.25
2023-03-19T08:34:22.067Z,8.07
2023-03-19T08:36:49.453Z,8.02
2023-03-19T08:39:16.521Z,8.75
2023-03-19T08:41:43.391Z,8.10
2023-03-19T08:44:10.755Z,8.10
2023-03-19T08:46:37.884Z,8.50
2023-03-19T08:49:05.178Z,8.23
2023-03-19T08:51:32.710Z,8.48
2023-03-19T08:54:00.438Z,8.45
2023-03-19T08:56:28.252Z,9.00
2023-03-19T08:58:57.057Z,8.32
2023-03-19T09:01:24.483Z,9.25
2023-03-19T09:03:51.437Z,8.38
2023-03-19T09:06:18.429Z,8.32
2023-03-19T09:08:46.215Z,9.23
2023-03-19T09:11:14.634Z,9.05
2023-03-19T09:13:41.900Z,8.93
2023-03-19T09:16:08.823Z,7.82
2023-03-19T09:18:36.354Z,9.18
2023-03-19T09:21:04.058Z,8.82
2023-03-19T09:23:31.314Z,9.10
2023-03-19T09:25:58.646Z,9.20
2023-03-19T09:28:25.858Z,9.80
2023-03-19T09:30:53.229Z,8.82
2023-03-19T09:33:21.379Z,9.38
2023-03-19T09:35:53.023Z,8.98
2023-03-19T09:38:21.287Z,33.00
2023-03-19T09:41:09.168Z,9.05
2023-03-19T09:43:49.947Z,9.85
2023-03-19T09:46:23.078Z,9.30
2023-03-19T09:49:03.836Z,8.68
2023-03-19T09:51:44.915Z,9.57
2023-03-19T09:54:24.945Z,8.65
2023-03-19T09:56:52.184Z,9.75
2023-03-19T09:59:21.659Z,8.32
2023-03-19T10:01:58.774Z,9.50
2023-03-19T10:04:43.542Z,9.13
2023-03-19T10:07:23.274Z,9.10
2023-03-19T10:09:56.841Z,8.90
2023-03-19T10:12:52.692Z,9.25
2023-03-19T10:15:29.041Z,9.00
2023-03-19T10:18:01.553Z,9.57
2023-03-19T10:20:41.672Z,8.85
2023-03-19T10:23:43.857Z,9.52
2023-03-19T10:26:19.764Z,9.20
2023-03-19T10:29:02.436Z,9.30
2023-03-19T10:31:41.163Z,10.07
2023-03-19T10:34:33.750Z,9.45
2023-03-19T10:37:01.451Z,9.60
2023-03-19T10:39:28.784Z,10.15
2023-03-19T10:42:01.794Z,9.68
2023-03-19T10:44:32.157Z,9.45
2023-03-19T10:47:09.028Z,10.95
2023-03-19T10:49:36.631Z,10.35
2023-03-19T10:52:04.453Z,10.50
2023-03-19T10:54:31.372Z,10.38
2023-03-19T10:57:01.282Z,10.20
2023-03-19T10:59:31.281Z,10.20
2023-03-19T11:02:02.094Z,9.10
2023-03-19T11:04:29.998Z,10.00
2023-03-19T11:07:04.093Z,9.45
2023-03-19T11:09:39.820Z,10.23
2023-03-19T11:12:19.198Z,9.93
2023-03-19T11:14:49.365Z,10.88
2023-03-19T11:17:37.797Z,13.77
2023-03-19T11:20:27.552Z,9.57
2023-03-19T11:22:56.521Z,10.10
2023-03-19T11:25:28.154Z,10.15
2023-03-19T11:28:01.512Z,9.30
2023-03-19T11:30:59.280Z,10.65
2023-03-19T11:33:46.123Z,10.02
2023-03-19T11:36:32.771Z,9.32
2023-03-19T11:39:21.223Z,10.93
2023-03-19T11:42:20.001Z,10.70
2023-03-19T11:45:09.084Z,11.45
2023-03-19T11:47:58.679Z,11.75
2023-03-19T11:50:51.234Z,10.68
2023-03-19T11:53:29.718Z,10.87
2023-03-19T11:56:15.273Z,10.30
2023-03-19T11:58:48.075Z,10.02
2023-03-19T12:01:53.737Z,10.88
2023-03-19T12:04:30.304Z,9.93
2023-03-19T12:07:10.871Z,10.10
2023-03-19T12:09:38.133Z,10.55
2023-03-19T12:12:30.966Z,10.68
2023-03-19T12:15:05.194Z,11.43
2023-03-19T12:18:01.053Z,10.15
2023-03-19T12:20:55.208Z,10.32
2023-03-19T12:23:44.513Z,10.18
2023-03-19T12:26:37.206Z,10.73
2023-03-19T12:29:18.902Z,10.35
2023-03-19T12:32:17.104Z,11.50
2023-03-19T12:34:55.166Z,10.82
2023-03-19T12:37:42.474Z,10.90
2023-03-19T12:40:14.606Z,11.38
2023-03-19T12:42:42.532Z,10.82
2023-03-19T12:45:32.786Z,11.23
2023-03-19T12:48:28.655Z,10.15
2023-03-19T12:51:02.075Z,10.25
2023-03-19T12:53:33.478Z,10.52
2023-03-19T12:56:08.373Z,10.55
2023-03-19T12:59:04.072Z,12.35
2023-03-19T13:01:37.392Z,11.32
2023-03-19T13:04:04.948Z,10.13
2023-03-19T13:06:41.438Z,10.27
2023-03-19T13:09:40.769Z,10.43
2023-03-19T13:12:15.417Z,9.60
2023-03-19T13:15:12.585Z,9.88
2023-03-19T13:18:03.937Z,9.75
2023-03-19T13:20:45.149Z,9.63
2023-03-19T13:23:18.104Z,9.95
2023-03-19T13:25:49.219Z,9.48
2023-03-19T13:28:30.741Z,10.20
2023-03-19T13:31:05.336Z,11.32
2023-03-19T13:33:35.211Z,11.30
2023-03-19T13:36:05.284Z,10.70
2023-03-19T13:38:49.039Z,10.27
2023-03-19T13:41:39.177Z,11.45
2023-03-19T13:44:39.215Z,10.07
2023-03-19T13:47:32.300Z,10.77
2023-03-19T13:50:20.747Z,10.63
2023-03-19T13:52:51.701Z,10.52
2023-03-19T13:55:30.442Z,10.52
2023-03-19T13:58:12.361Z,10.60
2023-03-19T14:00:42.995Z,10.30
2023-03-19T14:03:30.868Z,11.15
2023-03-19T14:05:59.765Z,11.20
2023-03-19T14:08:42.154Z,9.90
2023-03-19T14:11:09.754Z,10.57
2023-03-19T14:13:48.216Z,9.55
2023-03-19T14:16:24.849Z,10.73
2023-03-19T14:18:55.969Z,10.30
2023-03-19T14:21:47.380Z,9.98
2023-03-19T14:24:58.789Z,9.25
2023-03-19T14:27:33.408Z,10.55
2023-03-19T14:30:15.069Z,9.85
2023-03-19T14:32:43.344Z,10.10
2023-03-19T14:35:16.992Z,10.02
2023-03-19T14:37:49.287Z,9.88
2023-03-19T14:40:27.065Z,9.27
2023-03-19T14:42:58.338Z,9.65
2023-03-19T14:45:43.261Z,9.13
2023-03-19T14:48:33.384Z,9.23
2023-03-19T14:51:21.152Z,9.02
2023-03-19T14:54:01.683Z,8.93
2023-03-19T14:56:34.012Z,8.68
2023-03-19T14:59:04.605Z,8.83
2023-03-19T15:01:33.590Z,8.93
2023-03-19T15:04:07.946Z,8.75
2023-03-19T15:06:38.833Z,8.45
2023-03-19T15:09:32.385Z,9.02
2023-03-19T15:12:17.257Z,9.05
2023-03-19T15:14:53.083Z,9.30
2023-03-19T15:17:28.694Z,9.60
2023-03-19T15:19:58.429Z,9.68
2023-03-19T15:22:34.531Z,9.18
2023-03-19T15:25:09.986Z,8.63
2023-03-19T15:27:37.459Z,8.88
2023-03-19T15:30:19.252Z,10.07
2023-03-19T15:32:56.769Z,9.95
2023-03-19T15:35:36.460Z,9.43
2023-03-19T15:38:09.496Z,8.98
2023-03-19T15:40:38.075Z,10.05
2023-03-19T15:43:06.170Z,10.05
2023-03-19T15:45:34.258Z,9.55
2023-03-19T15:48:17.511Z,9.60
2023-03-19T15:50:47.586Z,10.15
2023-03-19T15:53:22.338Z,9.00
2023-03-19T15:55:52.196Z,10.02
2023-03-19T15:58:26.179Z,9.80
2023-03-19T16:00:54.536Z,8.98
2023-03-19T16:03:28.899Z,8.82
2023-03-19T16:06:27.241Z,9.57
2023-03-19T16:08:56.993Z,9.05
2023-03-19T16:11:34.409Z,10.40
2023-03-19T16:14:27.410Z,10.65
2023-03-19T16:17:02.337Z,11.90
2023-03-19T16:19:29.570Z,12.80
2023-03-19T16:21:57.009Z,11.77
2023-03-19T16:24:39.185Z,10.48
2023-03-19T16:27:26.112Z,10.00
2023-03-19T16:29:58.626Z,9.88
2023-03-19T16:32:27.586Z,10.02
2023-03-19T16:34:57.120Z,9.15
2023-03-19T16:37:45.558Z,10.15
2023-03-19T16:40:13.051Z,10.68
2023-03-19T16:43:06.293Z,11.57
2023-03-19T16:45:35.232Z,12.25
2023-03-19T16:48:03.589Z,13.05
2023-03-19T16:50:33.592Z,13.50
2023-03-19T16:53:02.867Z,13.48
2023-03-19T16:55:35.635Z,12.75
2023-03-19T16:58:12.114Z,13.13
2023-03-19T17:00:39.559Z,14.15
2023-03-19T17:03:32.952Z,13.57
2023-03-19T17:05:59.829Z,14.27
2023-03-19T17:08:27.103Z,13.00
2023-03-19T17:10:54.664Z,14.95
2023-03-19T17:13:28.515Z,16.35
2023-03-19T17:15:58.815Z,15.45
2023-03-19T17:18:30.274Z,15.38
2023-03-19T17:21:05.905Z,16.15
2023-03-19T17:23:35.058Z,15.32
2023-03-19T17:26:03.219Z,15.85
2023-03-19T17:28:32.463Z,15.07
2023-03-19T17:30:59.818Z,14.93
2023-03-19T17:33:30.376Z,15.20
2023-03-19T17:35:59.008Z,15.18
2023-03-19T17:38:44.064Z,16.30
2023-03-19T17:41:19.917Z,17.52
2023-03-19T17:43:47.664Z,19.85
2023-03-19T17:46:21.488Z,20.20
2023-03-19T17:48:49.986Z,18.05
2023-03-19T17:51:17.298Z,19.05
2023-03-19T17:53:48.590Z,19.67
2023-03-19T17:56:21.754Z,19.77
2023-03-19T18:01:21.197Z,20.52
2023-03-19T18:03:53.475Z,20.58
2023-03-19T18:06:26.633Z,20.93
2023-03-19T18:08:53.872Z,21.52
2023-03-19T18:11:20.955Z,22.08
2023-03-19T18:13:48.218Z,24.95
2023-03-19T18:16:19.436Z,24.10
2023-03-19T18:18:46.432Z,24.08
2023-03-19T18:21:14.927Z,23.80
2023-03-19T18:23:43.142Z,24.20
2023-03-19T18:26:11.849Z,23.10
2023-03-19T18:28:39.584Z,24.17
2023-03-19T18:31:16.538Z,25.60
2023-03-19T18:33:47.440Z,24.27
2023-03-19T18:36:27.923Z,28.05
2023-03-19T18:38:55.821Z,26.65
2023-03-19T18:41:25.074Z,32.55
2023-03-19T18:43:52.258Z,29.40
2023-03-19T18:46:30.775Z,30.00
2023-03-19T18:49:02.835Z,27.17
2023-03-19T18:51:30.145Z,31.65
2023-03-19T18:53:57.678Z,30.92
2023-03-19T18:56:30.562Z,30.30
2023-03-19T18:58:59.061Z,29.52
2023-03-19T19:01:27.120Z,35.72
2023-03-19T19:03:54.741Z,33.03
2023-03-19T19:06:36.557Z,34.10
2023-03-19T19:09:13.109Z,29.85
2023-03-19T19:11:41.778Z,30.33
2023-03-19T19:14:18.169Z,29.27
2023-03-19T19:16:45.875Z,29.63
2023-03-19T19:19:22.681Z,28.98
2023-03-19T19:21:50.880Z,30.80
2023-03-19T19:24:18.160Z,28.52
2023-03-19T19:26:47.987Z,27.85
2023-03-19T19:29:26.049Z,29.30
2023-03-19T19:31:54.408Z,26.33
2023-03-19T19:34:22.052Z,25.95
2023-03-19T19:36:50.980Z,31.13
2023-03-19T19:39:18.496Z,31.70
2023-03-19T19:41:46.595Z,30.60
2023-03-19T19:44:22.674Z,26.90
2023-03-19T19:46:53.346Z,27.38
2023-03-19T19:49:21.729Z,28.35
2023-03-19T19:51:48.623Z,28.25
2023-03-19T19:54:15.738Z,27.63
2023-03-19T19:56:42.793Z,27.70
2023-03-19T19:59:14.988Z,27.92
2023-03-19T20:01:42.348Z,28.70
2023-03-19T20:04:14.934Z,29.08
2023-03-19T20:06:42.199Z,33.78
2023-03-19T20:09:09.434Z,33.50
2023-03-19T20:11:36.674Z,34.92
2023-03-19T20:14:03.587Z,31.95
2023-03-19T20:16:30.923Z,31.23
2023-03-19T20:18:57.814Z,31.55
2023-03-19T20:21:25.036Z,33.35
2023-03-19T20:23:55.466Z,31.95
2023-03-19T20:26:24.739Z,32.38
2023-03-19T20:28:52.686Z,30.10
2023-03-19T20:31:29.667Z,32.20
2023-03-19T20:33:57.747Z,30.25
2023-03-19T20:36:25.186Z,30.67
2023-03-19T20:38:52.696Z,31.75
2023-03-19T20:41:22.877Z,29.27
2023-03-19T20:43:50.927Z,29.10
2023-03-19T20:46:20.465Z,31.58
2023-03-19T20:48:48.137Z,70.25
2023-03-19T20:51:24.707Z,55.80
2023-03-19T20:53:53.003Z,35.35
2023-03-19T20:56:22.607Z,29.70
2023-03-19T20:58:50.357Z,29.55
2023-03-19T21:01:18.739Z,27.40
2023-03-19T21:03:45.668Z,29.83
2023-03-19T21:06:13.098Z,32.17
2023-03-19T21:08:43.302Z,33.15
2023-03-19T21:11:21.207Z,32.00
2023-03-19T21:13:52.884Z,37.55
2023-03-19T21:16:25.798Z,33.63
2023-03-19T21:18:54.067Z,34.00
2023-03-19T21:21:36.269Z,30.30
2023-03-19T21:24:07.927Z,30.65
2023-03-19T21:26:39.953Z,30.85
2023-03-19T21:29:12.077Z,29.50
2023-03-19T21:31:39.350Z,28.30
2023-03-19T21:34:06.983Z,28.60
2023-03-19T21:36:33.841Z,30.42
2023-03-19T21:39:01.330Z,31.85
2023-03-19T21:41:33.388Z,30.98
2023-03-19T21:44:05.687Z,31.90
2023-03-19T21:46:33.844Z,32.03
2023-03-19T21:49:01.078Z,33.58
2023-03-19T21:51:29.554Z,35.60
2023-03-19T21:53:56.624Z,35.05
2023-03-19T21:56:39.724Z,35.75
2023-03-19T21:59:22.719Z,33.47
2023-03-19T22:01:49.994Z,36.35
2023-03-19T22:04:19.361Z,35.13
2023-03-19T22:06:46.921Z,34.58
2023-03-19T22:09:13.742Z,35.58
2023-03-19T22:11:42.558Z,60.05
2023-03-19T22:14:27.991Z,50.47
2023-03-19T22:16:56.476Z,40.83
2023-03-19T22:19:23.856Z,48.97
2023-03-19T22:21:52.256Z,84.53
2023-03-19T22:24:19.489Z,67.45
2023-03-19T22:26:49.563Z,54.72
2023-03-19T22:29:19.379Z,41.92
2023-03-19T22:31:49.394Z,56.70
2023-03-19T22:34:18.569Z,73.07
2023-03-19T22:36:46.184Z,77.30
2023-03-19T22:39:13.783Z,68.35
2023-03-19T22:41:45.984Z,111.40
2023-03-19T22:44:30.451Z,54.30
2023-03-19T22:47:00.256Z,86.43
2023-03-19T22:49:28.458Z,83.72
2023-03-19T22:51:56.595Z,64.30
2023-03-19T22:54:23.880Z,57.80
2023-03-19T22:56:51.137Z,40.40
2023-03-19T22:59:18.771Z,40.00
2023-03-19T23:01:46.825Z,42.47
2023-03-19T23:04:25.556Z,41.53
2023-03-19T23:06:54.205Z,42.50
2023-03-19T23:09:27.440Z,45.92
2023-03-19T23:14:29.777Z,48.42
2023-03-19T23:16:59.943Z,47.90
2023-03-19T23:19:30.551Z,47.65
2023-03-19T23:21:59.004Z,47.92
2023-03-19T23:24:27.938Z,54.78
2023-03-19T23:26:56.993Z,64.05
2023-03-19T23:29:29.912Z,67.40
2023-03-19T23:32:00.532Z,56.70
2023-03-19T23:34:33.498Z,56.72
2023-03-19T23:37:02.873Z,48.85
2023-03-19T23:39:30.061Z,55.88
2023-03-19T23:41:59.131Z,46.92
2023-03-19T23:44:29.193Z,48.15
2023-03-19T23:47:00.095Z,78.22
2023-03-19T23:49:33.478Z,131.32
2023-03-19T23:52:02.063Z,69.07
2023-03-19T23:54:31.693Z,62.65
2023-03-19T23:57:01.756Z,70.05
2023-03-19T23:59:33.428Z,62.25
